Terminal Aerodrome Forecast
Issued by NWS Austin/San Antonio, TX

Home | Current Version | Previous Version | Text Only | Print | Product List | Glossary On
Versions: 1 2 3 4 5 6 7 8 9 10 11 12 13 14 15 16 17 18 19
000
FTUS44 KEWX 300200 AAA
TAFSAT
TAF AMD
KSAT 300231Z 3003/3106 02005KT P6SM BKN050
     FM300400 03015KT P6SM FEW030 BKN050
     FM301300 02012KT P6SM BKN025 OVC100
     FM302200 09005KT P6SM OVC020=

USA.gov is the U.S. government's official web portal to all federal, state and local government web resources and services.